sensor_id;sensor_type;location;lat;lon;timestamp;P1;durP1;ratioP1;P2;durP2;ratioP2
7203;SDS011;3643;52.460;13.322;2022-12-18T00:00:39;40.63;;;14.63;;
7203;SDS011;3643;52.460;13.322;2022-12-18T00:03:08;47.33;;;16.73;;
7203;SDS011;3643;52.460;13.322;2022-12-18T00:05:37;50.60;;;16.67;;
7203;SDS011;3643;52.460;13.322;2022-12-18T00:08:15;44.63;;;15.87;;
7203;SDS011;3643;52.460;13.322;2022-12-18T00:10:47;45.37;;;15.70;;
7203;SDS011;3643;52.460;13.322;2022-12-18T00:13:15;44.13;;;15.77;;
7203;SDS011;3643;52.460;13.322;2022-12-18T00:18:20;48.60;;;17.60;;
7203;SDS011;3643;52.460;13.322;2022-12-18T00:20:50;44.50;;;15.07;;
7203;SDS011;3643;52.460;13.322;2022-12-18T00:23:18;41.30;;;16.67;;
7203;SDS011;3643;52.460;13.322;2022-12-18T00:25:47;41.27;;;15.77;;
7203;SDS011;3643;52.460;13.322;2022-12-18T00:28:15;50.90;;;17.73;;
7203;SDS011;3643;52.460;13.322;2022-12-18T00:30:44;42.47;;;16.57;;
7203;SDS011;3643;52.460;13.322;2022-12-18T00:33:12;53.83;;;17.67;;
7203;SDS011;3643;52.460;13.322;2022-12-18T00:35:41;51.83;;;18.60;;
7203;SDS011;3643;52.460;13.322;2022-12-18T00:38:11;51.87;;;18.43;;
7203;SDS011;3643;52.460;13.322;2022-12-18T00:40:40;61.70;;;18.73;;
7203;SDS011;3643;52.460;13.322;2022-12-18T00:43:08;46.93;;;15.90;;
7203;SDS011;3643;52.460;13.322;2022-12-18T00:45:36;54.20;;;18.03;;
7203;SDS011;3643;52.460;13.322;2022-12-18T00:48:06;45.70;;;16.53;;
7203;SDS011;3643;52.460;13.322;2022-12-18T00:50:34;58.30;;;19.57;;
7203;SDS011;3643;52.460;13.322;2022-12-18T00:53:04;53.03;;;16.93;;
7203;SDS011;3643;52.460;13.322;2022-12-18T00:55:34;47.87;;;17.30;;
7203;SDS011;3643;52.460;13.322;2022-12-18T00:58:03;51.57;;;17.57;;
7203;SDS011;3643;52.460;13.322;2022-12-18T01:00:31;60.70;;;19.70;;
7203;SDS011;3643;52.460;13.322;2022-12-18T01:03:00;55.77;;;18.80;;
7203;SDS011;3643;52.460;13.322;2022-12-18T01:05:29;57.03;;;18.67;;
7203;SDS011;3643;52.460;13.322;2022-12-18T01:07:58;55.20;;;17.60;;
7203;SDS011;3643;52.460;13.322;2022-12-18T01:10:27;52.90;;;19.17;;
7203;SDS011;3643;52.460;13.322;2022-12-18T01:12:57;56.17;;;19.40;;
7203;SDS011;3643;52.460;13.322;2022-12-18T01:15:26;56.13;;;19.63;;
7203;SDS011;3643;52.460;13.322;2022-12-18T01:17:54;61.87;;;18.80;;
7203;SDS011;3643;52.460;13.322;2022-12-18T01:20:26;53.97;;;18.37;;
7203;SDS011;3643;52.460;13.322;2022-12-18T01:23:01;56.10;;;20.10;;
7203;SDS011;3643;52.460;13.322;2022-12-18T01:25:29;51.73;;;19.60;;
7203;SDS011;3643;52.460;13.322;2022-12-18T01:27:59;47.03;;;17.60;;
7203;SDS011;3643;52.460;13.322;2022-12-18T01:30:28;46.43;;;17.17;;
7203;SDS011;3643;52.460;13.322;2022-12-18T01:32:57;39.60;;;16.00;;
7203;SDS011;3643;52.460;13.322;2022-12-18T01:35:25;48.47;;;16.77;;
7203;SDS011;3643;52.460;13.322;2022-12-18T01:37:54;43.33;;;15.43;;
7203;SDS011;3643;52.460;13.322;2022-12-18T01:40:23;48.10;;;16.80;;
7203;SDS011;3643;52.460;13.322;2022-12-18T01:42:53;43.43;;;15.33;;
7203;SDS011;3643;52.460;13.322;2022-12-18T01:45:24;48.93;;;16.73;;
7203;SDS011;3643;52.460;13.322;2022-12-18T01:47:55;52.27;;;18.63;;
7203;SDS011;3643;52.460;13.322;2022-12-18T01:50:29;50.97;;;17.40;;
7203;SDS011;3643;52.460;13.322;2022-12-18T01:53:02;53.30;;;17.53;;
7203;SDS011;3643;52.460;13.322;2022-12-18T01:55:35;57.30;;;17.70;;
7203;SDS011;3643;52.460;13.322;2022-12-18T01:58:08;48.37;;;16.40;;
7203;SDS011;3643;52.460;13.322;2022-12-18T02:00:38;42.10;;;15.20;;
7203;SDS011;3643;52.460;13.322;2022-12-18T02:03:07;40.73;;;14.83;;
7203;SDS011;3643;52.460;13.322;2022-12-18T02:05:40;51.53;;;17.53;;
7203;SDS011;3643;52.460;13.322;2022-12-18T02:08:15;51.70;;;17.87;;
7203;SDS011;3643;52.460;13.322;2022-12-18T02:10:50;49.37;;;16.73;;
7203;SDS011;3643;52.460;13.322;2022-12-18T02:13:30;47.23;;;16.60;;
7203;SDS011;3643;52.460;13.322;2022-12-18T02:16:08;40.33;;;14.93;;
7203;SDS011;3643;52.460;13.322;2022-12-18T02:18:45;43.40;;;15.83;;
7203;SDS011;3643;52.460;13.322;2022-12-18T02:21:20;48.47;;;16.83;;
7203;SDS011;3643;52.460;13.322;2022-12-18T02:23:56;47.47;;;16.70;;
7203;SDS011;3643;52.460;13.322;2022-12-18T02:26:40;46.20;;;14.43;;
7203;SDS011;3643;52.460;13.322;2022-12-18T02:29:13;42.43;;;14.37;;
7203;SDS011;3643;52.460;13.322;2022-12-18T02:31:46;49.50;;;16.33;;
7203;SDS011;3643;52.460;13.322;2022-12-18T02:34:21;48.33;;;17.27;;
7203;SDS011;3643;52.460;13.322;2022-12-18T02:36:56;45.50;;;16.33;;
7203;SDS011;3643;52.460;13.322;2022-12-18T02:39:27;43.27;;;16.27;;
7203;SDS011;3643;52.460;13.322;2022-12-18T02:42:05;43.03;;;15.40;;
7203;SDS011;3643;52.460;13.322;2022-12-18T02:44:34;51.67;;;16.73;;
7203;SDS011;3643;52.460;13.322;2022-12-18T02:47:10;59.67;;;19.23;;
7203;SDS011;3643;52.460;13.322;2022-12-18T02:49:41;47.23;;;17.37;;
7203;SDS011;3643;52.460;13.322;2022-12-18T02:52:20;48.03;;;16.17;;
7203;SDS011;3643;52.460;13.322;2022-12-18T02:54:57;49.70;;;17.43;;
7203;SDS011;3643;52.460;13.322;2022-12-18T02:57:39;55.77;;;16.50;;
7203;SDS011;3643;52.460;13.322;2022-12-18T03:00:12;50.30;;;17.43;;
7203;SDS011;3643;52.460;13.322;2022-12-18T03:02:46;43.87;;;15.50;;
7203;SDS011;3643;52.460;13.322;2022-12-18T03:05:22;49.80;;;17.67;;
7203;SDS011;3643;52.460;13.322;2022-12-18T03:07:56;54.87;;;17.33;;
7203;SDS011;3643;52.460;13.322;2022-12-18T03:10:29;45.67;;;17.97;;
7203;SDS011;3643;52.460;13.322;2022-12-18T03:13:04;53.30;;;19.13;;
7203;SDS011;3643;52.460;13.322;2022-12-18T03:15:36;52.43;;;17.83;;
7203;SDS011;3643;52.460;13.322;2022-12-18T03:18:10;44.43;;;17.27;;
7203;SDS011;3643;52.460;13.322;2022-12-18T03:20:43;57.30;;;18.23;;
7203;SDS011;3643;52.460;13.322;2022-12-18T03:23:14;54.73;;;17.73;;
7203;SDS011;3643;52.460;13.322;2022-12-18T03:25:54;52.03;;;17.53;;
7203;SDS011;3643;52.460;13.322;2022-12-18T03:28:35;47.43;;;16.07;;
7203;SDS011;3643;52.460;13.322;2022-12-18T03:31:10;47.83;;;16.57;;
7203;SDS011;3643;52.460;13.322;2022-12-18T03:33:42;53.87;;;15.07;;
7203;SDS011;3643;52.460;13.322;2022-12-18T03:36:19;54.77;;;17.90;;
7203;SDS011;3643;52.460;13.322;2022-12-18T03:38:49;52.53;;;16.97;;
7203;SDS011;3643;52.460;13.322;2022-12-18T03:41:19;56.43;;;19.53;;
7203;SDS011;3643;52.460;13.322;2022-12-18T03:43:57;48.43;;;16.97;;
7203;SDS011;3643;52.460;13.322;2022-12-18T03:46:33;56.87;;;19.57;;
7203;SDS011;3643;52.460;13.322;2022-12-18T03:49:11;53.73;;;18.90;;
7203;SDS011;3643;52.460;13.322;2022-12-18T03:51:47;52.67;;;17.80;;
7203;SDS011;3643;52.460;13.322;2022-12-18T03:54:19;60.53;;;18.07;;
7203;SDS011;3643;52.460;13.322;2022-12-18T03:56:50;59.37;;;19.27;;
7203;SDS011;3643;52.460;13.322;2022-12-18T03:59:27;55.53;;;17.63;;
7203;SDS011;3643;52.460;13.322;2022-12-18T04:01:58;52.27;;;18.10;;
7203;SDS011;3643;52.460;13.322;2022-12-18T04:04:29;48.67;;;17.90;;
7203;SDS011;3643;52.460;13.322;2022-12-18T04:06:59;54.53;;;18.73;;
7203;SDS011;3643;52.460;13.322;2022-12-18T04:09:29;59.37;;;18.87;;
7203;SDS011;3643;52.460;13.322;2022-12-18T04:12:01;53.73;;;19.30;;
7203;SDS011;3643;52.460;13.322;2022-12-18T04:14:31;55.47;;;18.10;;
7203;SDS011;3643;52.460;13.322;2022-12-18T04:17:02;60.97;;;19.13;;
7203;SDS011;3643;52.460;13.322;2022-12-18T04:19:31;65.97;;;21.27;;
7203;SDS011;3643;52.460;13.322;2022-12-18T04:21:59;65.03;;;20.00;;
7203;SDS011;3643;52.460;13.322;2022-12-18T04:24:28;69.33;;;21.13;;
7203;SDS011;3643;52.460;13.322;2022-12-18T04:26:57;58.80;;;19.50;;
7203;SDS011;3643;52.460;13.322;2022-12-18T04:29:26;62.47;;;20.60;;
7203;SDS011;3643;52.460;13.322;2022-12-18T04:31:57;66.70;;;20.23;;
7203;SDS011;3643;52.460;13.322;2022-12-18T04:34:26;74.00;;;23.50;;
7203;SDS011;3643;52.460;13.322;2022-12-18T04:36:55;73.27;;;21.33;;
7203;SDS011;3643;52.460;13.322;2022-12-18T04:39:23;71.33;;;21.57;;
7203;SDS011;3643;52.460;13.322;2022-12-18T04:41:53;68.17;;;20.73;;
7203;SDS011;3643;52.460;13.322;2022-12-18T04:44:23;86.33;;;24.40;;
7203;SDS011;3643;52.460;13.322;2022-12-18T04:46:53;73.77;;;22.87;;
7203;SDS011;3643;52.460;13.322;2022-12-18T04:49:23;82.53;;;25.10;;
7203;SDS011;3643;52.460;13.322;2022-12-18T04:51:52;81.13;;;26.33;;
7203;SDS011;3643;52.460;13.322;2022-12-18T04:54:22;80.53;;;23.93;;
7203;SDS011;3643;52.460;13.322;2022-12-18T04:56:50;90.70;;;24.40;;
7203;SDS011;3643;52.460;13.322;2022-12-18T04:59:20;89.07;;;26.20;;
7203;SDS011;3643;52.460;13.322;2022-12-18T05:01:49;88.83;;;25.97;;
7203;SDS011;3643;52.460;13.322;2022-12-18T05:04:17;85.13;;;24.83;;
7203;SDS011;3643;52.460;13.322;2022-12-18T05:06:47;75.20;;;23.83;;
7203;SDS011;3643;52.460;13.322;2022-12-18T05:09:15;90.53;;;27.47;;
7203;SDS011;3643;52.460;13.322;2022-12-18T05:11:44;92.57;;;28.87;;
7203;SDS011;3643;52.460;13.322;2022-12-18T05:14:13;94.00;;;27.53;;
7203;SDS011;3643;52.460;13.322;2022-12-18T05:16:42;98.13;;;26.20;;
7203;SDS011;3643;52.460;13.322;2022-12-18T05:19:11;95.00;;;26.90;;
7203;SDS011;3643;52.460;13.322;2022-12-18T05:21:39;86.07;;;25.70;;
7203;SDS011;3643;52.460;13.322;2022-12-18T05:24:09;83.43;;;25.50;;
7203;SDS011;3643;52.460;13.322;2022-12-18T05:26:37;76.93;;;23.83;;
7203;SDS011;3643;52.460;13.322;2022-12-18T05:29:06;70.77;;;22.43;;
7203;SDS011;3643;52.460;13.322;2022-12-18T05:31:40;83.93;;;22.77;;
7203;SDS011;3643;52.460;13.322;2022-12-18T05:34:14;68.43;;;22.00;;
7203;SDS011;3643;52.460;13.322;2022-12-18T05:36:42;69.70;;;22.70;;
7203;SDS011;3643;52.460;13.322;2022-12-18T05:39:13;66.87;;;22.60;;
7203;SDS011;3643;52.460;13.322;2022-12-18T05:41:41;70.63;;;22.53;;
7203;SDS011;3643;52.460;13.322;2022-12-18T05:44:09;71.93;;;23.83;;
7203;SDS011;3643;52.460;13.322;2022-12-18T05:46:38;75.37;;;23.03;;
7203;SDS011;3643;52.460;13.322;2022-12-18T05:49:09;64.40;;;21.93;;
7203;SDS011;3643;52.460;13.322;2022-12-18T05:51:37;64.97;;;21.70;;
7203;SDS011;3643;52.460;13.322;2022-12-18T05:54:06;67.90;;;20.30;;
7203;SDS011;3643;52.460;13.322;2022-12-18T05:56:37;61.23;;;19.57;;
7203;SDS011;3643;52.460;13.322;2022-12-18T05:59:13;68.63;;;21.03;;
7203;SDS011;3643;52.460;13.322;2022-12-18T06:01:45;67.37;;;22.07;;
7203;SDS011;3643;52.460;13.322;2022-12-18T06:04:15;66.63;;;21.00;;
7203;SDS011;3643;52.460;13.322;2022-12-18T06:06:43;60.07;;;19.37;;
7203;SDS011;3643;52.460;13.322;2022-12-18T06:09:12;65.53;;;20.77;;
7203;SDS011;3643;52.460;13.322;2022-12-18T06:11:42;67.43;;;22.80;;
7203;SDS011;3643;52.460;13.322;2022-12-18T06:14:10;72.13;;;21.83;;
7203;SDS011;3643;52.460;13.322;2022-12-18T06:16:39;69.63;;;22.07;;
7203;SDS011;3643;52.460;13.322;2022-12-18T06:19:07;74.40;;;23.87;;
7203;SDS011;3643;52.460;13.322;2022-12-18T06:21:35;68.90;;;22.07;;
7203;SDS011;3643;52.460;13.322;2022-12-18T06:24:03;63.83;;;21.57;;
7203;SDS011;3643;52.460;13.322;2022-12-18T06:26:33;64.57;;;22.67;;
7203;SDS011;3643;52.460;13.322;2022-12-18T06:29:05;66.63;;;22.67;;
7203;SDS011;3643;52.460;13.322;2022-12-18T06:31:33;68.83;;;22.17;;
7203;SDS011;3643;52.460;13.322;2022-12-18T06:34:02;59.30;;;22.00;;
7203;SDS011;3643;52.460;13.322;2022-12-18T06:36:31;63.67;;;21.20;;
7203;SDS011;3643;52.460;13.322;2022-12-18T06:38:59;64.20;;;21.67;;
7203;SDS011;3643;52.460;13.322;2022-12-18T06:41:28;63.03;;;21.60;;
7203;SDS011;3643;52.460;13.322;2022-12-18T06:43:58;66.33;;;19.93;;
7203;SDS011;3643;52.460;13.322;2022-12-18T06:46:28;58.40;;;20.57;;
7203;SDS011;3643;52.460;13.322;2022-12-18T06:48:56;56.83;;;19.53;;
7203;SDS011;3643;52.460;13.322;2022-12-18T06:51:25;61.80;;;20.43;;
7203;SDS011;3643;52.460;13.322;2022-12-18T06:53:54;61.27;;;21.50;;
7203;SDS011;3643;52.460;13.322;2022-12-18T06:56:22;65.20;;;22.00;;
7203;SDS011;3643;52.460;13.322;2022-12-18T06:58:51;78.83;;;23.63;;
7203;SDS011;3643;52.460;13.322;2022-12-18T07:01:19;73.53;;;22.67;;
7203;SDS011;3643;52.460;13.322;2022-12-18T07:03:53;74.73;;;23.07;;
7203;SDS011;3643;52.460;13.322;2022-12-18T07:06:22;68.40;;;23.53;;
7203;SDS011;3643;52.460;13.322;2022-12-18T07:08:52;83.10;;;24.63;;
7203;SDS011;3643;52.460;13.322;2022-12-18T07:11:21;72.00;;;24.33;;
7203;SDS011;3643;52.460;13.322;2022-12-18T07:13:50;83.87;;;25.23;;
7203;SDS011;3643;52.460;13.322;2022-12-18T07:16:20;77.47;;;24.77;;
7203;SDS011;3643;52.460;13.322;2022-12-18T07:18:55;87.83;;;26.20;;
7203;SDS011;3643;52.460;13.322;2022-12-18T07:21:24;77.60;;;26.27;;
7203;SDS011;3643;52.460;13.322;2022-12-18T07:23:53;82.93;;;24.63;;
7203;SDS011;3643;52.460;13.322;2022-12-18T07:26:21;76.17;;;24.17;;
7203;SDS011;3643;52.460;13.322;2022-12-18T07:28:49;73.83;;;22.73;;
7203;SDS011;3643;52.460;13.322;2022-12-18T07:31:18;78.10;;;24.97;;
7203;SDS011;3643;52.460;13.322;2022-12-18T07:33:48;68.50;;;22.73;;
7203;SDS011;3643;52.460;13.322;2022-12-18T07:36:18;71.03;;;22.73;;
7203;SDS011;3643;52.460;13.322;2022-12-18T07:38:49;73.70;;;23.97;;
7203;SDS011;3643;52.460;13.322;2022-12-18T07:41:18;71.63;;;22.50;;
7203;SDS011;3643;52.460;13.322;2022-12-18T07:43:47;61.40;;;20.93;;
7203;SDS011;3643;52.460;13.322;2022-12-18T07:46:15;50.30;;;19.00;;
7203;SDS011;3643;52.460;13.322;2022-12-18T07:48:44;55.13;;;19.43;;
7203;SDS011;3643;52.460;13.322;2022-12-18T07:51:15;54.20;;;18.63;;
7203;SDS011;3643;52.460;13.322;2022-12-18T07:53:46;55.23;;;19.20;;
7203;SDS011;3643;52.460;13.322;2022-12-18T07:56:17;54.03;;;18.87;;
7203;SDS011;3643;52.460;13.322;2022-12-18T07:58:55;48.97;;;17.90;;
7203;SDS011;3643;52.460;13.322;2022-12-18T08:01:24;58.30;;;19.17;;
7203;SDS011;3643;52.460;13.322;2022-12-18T08:03:53;49.20;;;17.73;;
7203;SDS011;3643;52.460;13.322;2022-12-18T08:06:22;50.77;;;18.33;;
7203;SDS011;3643;52.460;13.322;2022-12-18T08:08:53;52.83;;;18.90;;
7203;SDS011;3643;52.460;13.322;2022-12-18T08:11:23;54.80;;;19.07;;
7203;SDS011;3643;52.460;13.322;2022-12-18T08:13:53;57.30;;;19.90;;
7203;SDS011;3643;52.460;13.322;2022-12-18T08:16:22;45.03;;;16.53;;
7203;SDS011;3643;52.460;13.322;2022-12-18T08:18:52;53.80;;;18.63;;
7203;SDS011;3643;52.460;13.322;2022-12-18T08:21:22;55.40;;;19.37;;
7203;SDS011;3643;52.460;13.322;2022-12-18T08:23:53;53.33;;;18.50;;
7203;SDS011;3643;52.460;13.322;2022-12-18T08:26:22;49.77;;;16.97;;
7203;SDS011;3643;52.460;13.322;2022-12-18T08:28:53;55.07;;;18.73;;
7203;SDS011;3643;52.460;13.322;2022-12-18T08:31:22;58.27;;;19.20;;
7203;SDS011;3643;52.460;13.322;2022-12-18T08:33:52;54.57;;;19.70;;
7203;SDS011;3643;52.460;13.322;2022-12-18T08:36:21;57.33;;;19.43;;
7203;SDS011;3643;52.460;13.322;2022-12-18T08:38:53;52.17;;;19.10;;
7203;SDS011;3643;52.460;13.322;2022-12-18T08:41:22;57.40;;;20.20;;
7203;SDS011;3643;52.460;13.322;2022-12-18T08:43:56;56.73;;;18.13;;
7203;SDS011;3643;52.460;13.322;2022-12-18T08:46:42;45.60;;;17.30;;
7203;SDS011;3643;52.460;13.322;2022-12-18T08:49:12;56.30;;;19.57;;
7203;SDS011;3643;52.460;13.322;2022-12-18T08:51:40;59.23;;;20.87;;
7203;SDS011;3643;52.460;13.322;2022-12-18T08:54:10;55.13;;;19.10;;
7203;SDS011;3643;52.460;13.322;2022-12-18T08:56:42;57.20;;;19.27;;
7203;SDS011;3643;52.460;13.322;2022-12-18T08:59:11;51.13;;;19.30;;
7203;SDS011;3643;52.460;13.322;2022-12-18T09:01:45;51.60;;;19.10;;
7203;SDS011;3643;52.460;13.322;2022-12-18T09:04:14;49.80;;;18.27;;
7203;SDS011;3643;52.460;13.322;2022-12-18T09:06:43;53.03;;;18.20;;
7203;SDS011;3643;52.460;13.322;2022-12-18T09:09:13;54.27;;;18.97;;
7203;SDS011;3643;52.460;13.322;2022-12-18T09:11:43;54.10;;;19.37;;
7203;SDS011;3643;52.460;13.322;2022-12-18T09:14:12;52.53;;;17.57;;
7203;SDS011;3643;52.460;13.322;2022-12-18T09:16:40;54.10;;;19.20;;
7203;SDS011;3643;52.460;13.322;2022-12-18T09:19:09;51.97;;;18.67;;
7203;SDS011;3643;52.460;13.322;2022-12-18T09:21:38;55.40;;;18.57;;
7203;SDS011;3643;52.460;13.322;2022-12-18T09:24:14;47.67;;;18.73;;
7203;SDS011;3643;52.460;13.322;2022-12-18T09:26:43;50.53;;;17.63;;
7203;SDS011;3643;52.460;13.322;2022-12-18T09:29:12;48.07;;;17.60;;
7203;SDS011;3643;52.460;13.322;2022-12-18T09:31:44;48.47;;;18.67;;
7203;SDS011;3643;52.460;13.322;2022-12-18T09:34:13;49.97;;;18.50;;
7203;SDS011;3643;52.460;13.322;2022-12-18T09:36:42;42.47;;;17.00;;
7203;SDS011;3643;52.460;13.322;2022-12-18T09:39:12;55.30;;;18.60;;
7203;SDS011;3643;52.460;13.322;2022-12-18T09:41:45;47.23;;;16.53;;
7203;SDS011;3643;52.460;13.322;2022-12-18T09:44:19;56.33;;;19.97;;
7203;SDS011;3643;52.460;13.322;2022-12-18T09:46:52;54.47;;;18.43;;
7203;SDS011;3643;52.460;13.322;2022-12-18T09:49:27;46.30;;;15.90;;
7203;SDS011;3643;52.460;13.322;2022-12-18T09:51:59;44.93;;;17.63;;
7203;SDS011;3643;52.460;13.322;2022-12-18T09:54:35;49.20;;;17.77;;
7203;SDS011;3643;52.460;13.322;2022-12-18T09:57:09;41.10;;;16.67;;
7203;SDS011;3643;52.460;13.322;2022-12-18T09:59:40;40.10;;;15.60;;
7203;SDS011;3643;52.460;13.322;2022-12-18T10:02:14;44.40;;;16.80;;
7203;SDS011;3643;52.460;13.322;2022-12-18T10:04:44;42.57;;;16.93;;
7203;SDS011;3643;52.460;13.322;2022-12-18T10:07:23;42.27;;;16.80;;
7203;SDS011;3643;52.460;13.322;2022-12-18T10:10:00;48.23;;;17.93;;
7203;SDS011;3643;52.460;13.322;2022-12-18T10:12:36;44.30;;;17.47;;
7203;SDS011;3643;52.460;13.322;2022-12-18T10:15:10;42.63;;;17.30;;
7203;SDS011;3643;52.460;13.322;2022-12-18T10:17:45;42.03;;;16.80;;
7203;SDS011;3643;52.460;13.322;2022-12-18T10:20:19;34.90;;;14.93;;
7203;SDS011;3643;52.460;13.322;2022-12-18T10:22:55;39.80;;;16.83;;
7203;SDS011;3643;52.460;13.322;2022-12-18T10:25:31;37.30;;;15.87;;
7203;SDS011;3643;52.460;13.322;2022-12-18T10:28:07;44.13;;;16.33;;
7203;SDS011;3643;52.460;13.322;2022-12-18T10:30:39;41.20;;;16.93;;
7203;SDS011;3643;52.460;13.322;2022-12-18T10:33:10;38.67;;;16.13;;
7203;SDS011;3643;52.460;13.322;2022-12-18T10:35:43;48.33;;;17.30;;
7203;SDS011;3643;52.460;13.322;2022-12-18T10:38:21;37.33;;;15.40;;
7203;SDS011;3643;52.460;13.322;2022-12-18T10:40:54;46.50;;;18.03;;
7203;SDS011;3643;52.460;13.322;2022-12-18T10:43:26;46.40;;;17.23;;
7203;SDS011;3643;52.460;13.322;2022-12-18T10:46:12;41.07;;;18.00;;
7203;SDS011;3643;52.460;13.322;2022-12-18T10:48:51;39.53;;;15.87;;
7203;SDS011;3643;52.460;13.322;2022-12-18T10:51:23;43.23;;;17.67;;
7203;SDS011;3643;52.460;13.322;2022-12-18T10:53:57;36.63;;;15.63;;
7203;SDS011;3643;52.460;13.322;2022-12-18T10:56:31;36.60;;;15.93;;
7203;SDS011;3643;52.460;13.322;2022-12-18T10:59:03;36.87;;;15.57;;
7203;SDS011;3643;52.460;13.322;2022-12-18T11:01:45;42.33;;;15.60;;
7203;SDS011;3643;52.460;13.322;2022-12-18T11:04:16;51.57;;;20.27;;
7203;SDS011;3643;52.460;13.322;2022-12-18T11:06:54;45.90;;;17.27;;
7203;SDS011;3643;52.460;13.322;2022-12-18T11:09:25;45.70;;;19.67;;
7203;SDS011;3643;52.460;13.322;2022-12-18T11:11:57;47.20;;;17.53;;
7203;SDS011;3643;52.460;13.322;2022-12-18T11:14:28;45.43;;;16.63;;
7203;SDS011;3643;52.460;13.322;2022-12-18T11:16:58;48.73;;;18.00;;
7203;SDS011;3643;52.460;13.322;2022-12-18T11:19:52;46.40;;;17.60;;
7203;SDS011;3643;52.460;13.322;2022-12-18T11:22:22;45.30;;;17.80;;
7203;SDS011;3643;52.460;13.322;2022-12-18T11:24:55;40.23;;;16.77;;
7203;SDS011;3643;52.460;13.322;2022-12-18T11:27:51;42.57;;;17.13;;
7203;SDS011;3643;52.460;13.322;2022-12-18T11:30:22;40.53;;;16.23;;
7203;SDS011;3643;52.460;13.322;2022-12-18T11:35:59;40.37;;;17.13;;
7203;SDS011;3643;52.460;13.322;2022-12-18T11:38:32;45.53;;;18.03;;
7203;SDS011;3643;52.460;13.322;2022-12-18T11:41:05;41.07;;;17.03;;
7203;SDS011;3643;52.460;13.322;2022-12-18T11:43:45;37.93;;;16.73;;
7203;SDS011;3643;52.460;13.322;2022-12-18T11:46:23;44.90;;;17.07;;
7203;SDS011;3643;52.460;13.322;2022-12-18T11:48:58;45.93;;;17.40;;
7203;SDS011;3643;52.460;13.322;2022-12-18T11:51:35;44.73;;;18.40;;
7203;SDS011;3643;52.460;13.322;2022-12-18T11:54:09;41.27;;;17.40;;
7203;SDS011;3643;52.460;13.322;2022-12-18T11:56:42;43.07;;;17.37;;
7203;SDS011;3643;52.460;13.322;2022-12-18T11:59:20;39.77;;;16.23;;
7203;SDS011;3643;52.460;13.322;2022-12-18T12:01:59;47.40;;;18.80;;
7203;SDS011;3643;52.460;13.322;2022-12-18T12:04:42;44.10;;;18.43;;
7203;SDS011;3643;52.460;13.322;2022-12-18T12:07:21;44.37;;;17.13;;
7203;SDS011;3643;52.460;13.322;2022-12-18T12:10:03;41.10;;;17.87;;
7203;SDS011;3643;52.460;13.322;2022-12-18T12:12:51;45.00;;;18.77;;
7203;SDS011;3643;52.460;13.322;2022-12-18T12:15:34;43.93;;;17.53;;
7203;SDS011;3643;52.460;13.322;2022-12-18T12:18:14;36.97;;;15.67;;
7203;SDS011;3643;52.460;13.322;2022-12-18T12:20:49;38.17;;;15.40;;
7203;SDS011;3643;52.460;13.322;2022-12-18T12:23:28;43.97;;;18.63;;
7203;SDS011;3643;52.460;13.322;2022-12-18T12:26:02;45.23;;;16.83;;
7203;SDS011;3643;52.460;13.322;2022-12-18T12:28:40;40.27;;;17.17;;
7203;SDS011;3643;52.460;13.322;2022-12-18T12:31:30;43.77;;;17.70;;
7203;SDS011;3643;52.460;13.322;2022-12-18T12:34:16;34.63;;;16.03;;
7203;SDS011;3643;52.460;13.322;2022-12-18T12:36:53;44.90;;;18.73;;
7203;SDS011;3643;52.460;13.322;2022-12-18T12:39:36;42.13;;;18.70;;
7203;SDS011;3643;52.460;13.322;2022-12-18T12:42:11;43.77;;;17.83;;
7203;SDS011;3643;52.460;13.322;2022-12-18T12:45:05;45.10;;;17.60;;
7203;SDS011;3643;52.460;13.322;2022-12-18T12:47:45;36.57;;;16.23;;
7203;SDS011;3643;52.460;13.322;2022-12-18T12:50:16;43.93;;;18.17;;
7203;SDS011;3643;52.460;13.322;2022-12-18T12:52:48;41.67;;;17.77;;
7203;SDS011;3643;52.460;13.322;2022-12-18T12:55:22;39.70;;;16.90;;
7203;SDS011;3643;52.460;13.322;2022-12-18T12:57:55;34.00;;;16.07;;
7203;SDS011;3643;52.460;13.322;2022-12-18T13:00:30;32.93;;;15.60;;
7203;SDS011;3643;52.460;13.322;2022-12-18T13:03:08;28.90;;;13.67;;
7203;SDS011;3643;52.460;13.322;2022-12-18T13:05:43;35.33;;;15.97;;
7203;SDS011;3643;52.460;13.322;2022-12-18T13:08:22;33.33;;;15.17;;
7203;SDS011;3643;52.460;13.322;2022-12-18T13:10:53;33.83;;;15.50;;
7203;SDS011;3643;52.460;13.322;2022-12-18T13:13:48;30.60;;;15.03;;
7203;SDS011;3643;52.460;13.322;2022-12-18T13:16:18;31.60;;;15.07;;
7203;SDS011;3643;52.460;13.322;2022-12-18T13:18:49;34.23;;;16.10;;
7203;SDS011;3643;52.460;13.322;2022-12-18T13:21:20;34.43;;;16.37;;
7203;SDS011;3643;52.460;13.322;2022-12-18T13:23:53;36.87;;;17.60;;
7203;SDS011;3643;52.460;13.322;2022-12-18T13:26:31;37.40;;;16.67;;
7203;SDS011;3643;52.460;13.322;2022-12-18T13:29:02;39.17;;;17.37;;
7203;SDS011;3643;52.460;13.322;2022-12-18T13:34:29;34.13;;;15.90;;
7203;SDS011;3643;52.460;13.322;2022-12-18T13:43:27;35.17;;;16.00;;
7203;SDS011;3643;52.460;13.322;2022-12-18T13:46:02;36.13;;;17.33;;
7203;SDS011;3643;52.460;13.322;2022-12-18T13:48:49;31.30;;;16.20;;
7203;SDS011;3643;52.460;13.322;2022-12-18T13:51:23;29.53;;;15.83;;
7203;SDS011;3643;52.460;13.322;2022-12-18T13:53:53;37.90;;;17.40;;
7203;SDS011;3643;52.460;13.322;2022-12-18T13:56:26;37.80;;;17.07;;
7203;SDS011;3643;52.460;13.322;2022-12-18T14:02:07;39.57;;;19.43;;
7203;SDS011;3643;52.460;13.322;2022-12-18T14:04:44;38.97;;;18.40;;
7203;SDS011;3643;52.460;13.322;2022-12-18T14:07:15;44.40;;;20.40;;
7203;SDS011;3643;52.460;13.322;2022-12-18T14:09:46;46.77;;;21.97;;
7203;SDS011;3643;52.460;13.322;2022-12-18T14:12:28;45.63;;;21.30;;
7203;SDS011;3643;52.460;13.322;2022-12-18T14:15:17;47.83;;;21.53;;
7203;SDS011;3643;52.460;13.322;2022-12-18T14:17:52;51.90;;;21.67;;
7203;SDS011;3643;52.460;13.322;2022-12-18T14:20:22;49.03;;;22.17;;
7203;SDS011;3643;52.460;13.322;2022-12-18T14:22:53;56.10;;;23.17;;
7203;SDS011;3643;52.460;13.322;2022-12-18T14:25:24;44.50;;;20.90;;
7203;SDS011;3643;52.460;13.322;2022-12-18T14:28:02;55.10;;;23.60;;
7203;SDS011;3643;52.460;13.322;2022-12-18T14:30:36;69.77;;;25.73;;
7203;SDS011;3643;52.460;13.322;2022-12-18T14:33:08;56.67;;;26.13;;
7203;SDS011;3643;52.460;13.322;2022-12-18T14:35:38;60.40;;;25.57;;
7203;SDS011;3643;52.460;13.322;2022-12-18T14:38:19;59.90;;;24.90;;
7203;SDS011;3643;52.460;13.322;2022-12-18T14:40:54;61.37;;;25.80;;
7203;SDS011;3643;52.460;13.322;2022-12-18T14:43:23;60.87;;;25.20;;
7203;SDS011;3643;52.460;13.322;2022-12-18T14:45:52;63.97;;;24.37;;
7203;SDS011;3643;52.460;13.322;2022-12-18T14:48:21;58.03;;;23.90;;
7203;SDS011;3643;52.460;13.322;2022-12-18T14:51:00;53.20;;;23.47;;
7203;SDS011;3643;52.460;13.322;2022-12-18T14:53:36;59.00;;;24.83;;
7203;SDS011;3643;52.460;13.322;2022-12-18T14:56:13;56.73;;;24.23;;
7203;SDS011;3643;52.460;13.322;2022-12-18T14:58:47;50.63;;;23.03;;
7203;SDS011;3643;52.460;13.322;2022-12-18T15:01:24;53.17;;;24.27;;
7203;SDS011;3643;52.460;13.322;2022-12-18T15:03:55;53.80;;;23.00;;
7203;SDS011;3643;52.460;13.322;2022-12-18T15:06:26;49.20;;;22.13;;
7203;SDS011;3643;52.460;13.322;2022-12-18T15:08:59;47.97;;;21.33;;
7203;SDS011;3643;52.460;13.322;2022-12-18T15:11:31;39.67;;;19.10;;
7203;SDS011;3643;52.460;13.322;2022-12-18T15:16:51;35.80;;;17.70;;
7203;SDS011;3643;52.460;13.322;2022-12-18T15:19:20;38.97;;;17.70;;
7203;SDS011;3643;52.460;13.322;2022-12-18T15:21:50;39.43;;;18.50;;
7203;SDS011;3643;52.460;13.322;2022-12-18T15:24:20;36.30;;;16.57;;